sensor_id;sensor_type;location;lat;lon;timestamp;temperature;humidity
11239;DHT22;5677;48.488;13.436;2023-07-28T00:00:37;20.20;52.20
11239;DHT22;5677;48.488;13.436;2023-07-28T00:03:04;20.20;52.20
11239;DHT22;5677;48.488;13.436;2023-07-28T00:05:31;20.20;52.20
11239;DHT22;5677;48.488;13.436;2023-07-28T00:07:58;20.20;52.20
11239;DHT22;5677;48.488;13.436;2023-07-28T00:10:26;20.20;52.20
11239;DHT22;5677;48.488;13.436;2023-07-28T00:12:52;20.20;52.20
11239;DHT22;5677;48.488;13.436;2023-07-28T00:15:19;20.20;52.20
11239;DHT22;5677;48.488;13.436;2023-07-28T00:17:46;20.20;52.20
11239;DHT22;5677;48.488;13.436;2023-07-28T00:20:13;20.20;52.20
11239;DHT22;5677;48.488;13.436;2023-07-28T00:22:39;20.20;52.20
11239;DHT22;5677;48.488;13.436;2023-07-28T00:25:07;20.20;52.20
11239;DHT22;5677;48.488;13.436;2023-07-28T00:27:35;20.20;52.20
11239;DHT22;5677;48.488;13.436;2023-07-28T00:30:02;20.20;52.20
11239;DHT22;5677;48.488;13.436;2023-07-28T00:32:28;20.20;52.20
11239;DHT22;5677;48.488;13.436;2023-07-28T00:34:55;20.20;52.20
11239;DHT22;5677;48.488;13.436;2023-07-28T00:37:22;20.20;52.20
11239;DHT22;5677;48.488;13.436;2023-07-28T00:39:49;20.20;52.30
11239;DHT22;5677;48.488;13.436;2023-07-28T00:42:15;20.20;52.30
11239;DHT22;5677;48.488;13.436;2023-07-28T00:44:43;20.20;52.30
11239;DHT22;5677;48.488;13.436;2023-07-28T00:47:10;20.20;52.30
11239;DHT22;5677;48.488;13.436;2023-07-28T00:49:38;20.20;52.30
11239;DHT22;5677;48.488;13.436;2023-07-28T00:52:07;20.20;52.30
11239;DHT22;5677;48.488;13.436;2023-07-28T00:54:34;20.20;52.30
11239;DHT22;5677;48.488;13.436;2023-07-28T00:57:01;20.20;52.60
11239;DHT22;5677;48.488;13.436;2023-07-28T00:59:29;20.20;53.00
11239;DHT22;5677;48.488;13.436;2023-07-28T01:01:57;20.20;52.30
11239;DHT22;5677;48.488;13.436;2023-07-28T01:04:24;20.20;52.30
11239;DHT22;5677;48.488;13.436;2023-07-28T01:06:56;20.20;52.30
11239;DHT22;5677;48.488;13.436;2023-07-28T01:09:28;20.20;52.30
11239;DHT22;5677;48.488;13.436;2023-07-28T01:11:56;20.10;52.30
11239;DHT22;5677;48.488;13.436;2023-07-28T01:14:23;20.20;52.30
11239;DHT22;5677;48.488;13.436;2023-07-28T01:16:51;20.20;52.30
11239;DHT22;5677;48.488;13.436;2023-07-28T01:19:20;20.20;52.30
11239;DHT22;5677;48.488;13.436;2023-07-28T01:21:53;20.10;52.30
11239;DHT22;5677;48.488;13.436;2023-07-28T01:24:29;20.20;53.10
11239;DHT22;5677;48.488;13.436;2023-07-28T01:27:03;20.10;52.40
11239;DHT22;5677;48.488;13.436;2023-07-28T01:29:31;20.20;52.40
11239;DHT22;5677;48.488;13.436;2023-07-28T01:35:19;20.10;52.40
11239;DHT22;5677;48.488;13.436;2023-07-28T01:37:46;20.10;52.40
11239;DHT22;5677;48.488;13.436;2023-07-28T01:40:16;20.10;52.40
11239;DHT22;5677;48.488;13.436;2023-07-28T01:42:44;20.10;52.40
11239;DHT22;5677;48.488;13.436;2023-07-28T01:45:11;20.10;52.40
11239;DHT22;5677;48.488;13.436;2023-07-28T01:47:38;20.10;52.40
11239;DHT22;5677;48.488;13.436;2023-07-28T01:50:06;20.10;52.50
11239;DHT22;5677;48.488;13.436;2023-07-28T01:52:33;20.10;52.50
11239;DHT22;5677;48.488;13.436;2023-07-28T01:55:00;20.10;52.50
11239;DHT22;5677;48.488;13.436;2023-07-28T01:57:27;20.10;52.50
11239;DHT22;5677;48.488;13.436;2023-07-28T01:59:55;20.10;52.50
11239;DHT22;5677;48.488;13.436;2023-07-28T02:05:43;20.10;52.50
11239;DHT22;5677;48.488;13.436;2023-07-28T02:08:11;20.10;52.50
11239;DHT22;5677;48.488;13.436;2023-07-28T02:10:37;20.10;52.50
11239;DHT22;5677;48.488;13.436;2023-07-28T02:13:04;20.10;52.50
11239;DHT22;5677;48.488;13.436;2023-07-28T02:15:32;20.10;52.50
11239;DHT22;5677;48.488;13.436;2023-07-28T02:17:59;20.10;52.50
11239;DHT22;5677;48.488;13.436;2023-07-28T02:20:26;20.10;52.50
11239;DHT22;5677;48.488;13.436;2023-07-28T02:22:53;20.10;52.50
11239;DHT22;5677;48.488;13.436;2023-07-28T02:25:19;20.10;52.50
11239;DHT22;5677;48.488;13.436;2023-07-28T02:27:46;20.10;52.50
11239;DHT22;5677;48.488;13.436;2023-07-28T02:30:13;20.10;52.50
11239;DHT22;5677;48.488;13.436;2023-07-28T02:32:41;20.10;52.50
11239;DHT22;5677;48.488;13.436;2023-07-28T02:35:08;20.10;52.50
11239;DHT22;5677;48.488;13.436;2023-07-28T02:37:36;20.10;52.60
11239;DHT22;5677;48.488;13.436;2023-07-28T02:40:03;20.10;52.50
11239;DHT22;5677;48.488;13.436;2023-07-28T02:42:30;20.10;52.50
11239;DHT22;5677;48.488;13.436;2023-07-28T02:44:59;20.10;52.50
11239;DHT22;5677;48.488;13.436;2023-07-28T02:47:26;20.10;52.50
11239;DHT22;5677;48.488;13.436;2023-07-28T02:49:54;20.10;52.60
11239;DHT22;5677;48.488;13.436;2023-07-28T02:52:20;20.10;52.60
11239;DHT22;5677;48.488;13.436;2023-07-28T02:54:47;20.10;52.60
11239;DHT22;5677;48.488;13.436;2023-07-28T02:57:15;20.10;52.90
11239;DHT22;5677;48.488;13.436;2023-07-28T02:59:42;20.10;52.60
11239;DHT22;5677;48.488;13.436;2023-07-28T03:02:09;20.10;52.50
11239;DHT22;5677;48.488;13.436;2023-07-28T03:04:35;20.10;52.50
11239;DHT22;5677;48.488;13.436;2023-07-28T03:07:04;20.10;52.60
11239;DHT22;5677;48.488;13.436;2023-07-28T03:09:31;20.10;52.60
11239;DHT22;5677;48.488;13.436;2023-07-28T03:11:57;20.10;52.60
11239;DHT22;5677;48.488;13.436;2023-07-28T03:14:24;20.10;52.60
11239;DHT22;5677;48.488;13.436;2023-07-28T03:16:52;20.10;52.60
11239;DHT22;5677;48.488;13.436;2023-07-28T03:19:18;20.10;52.60
11239;DHT22;5677;48.488;13.436;2023-07-28T03:21:45;20.10;52.60
11239;DHT22;5677;48.488;13.436;2023-07-28T03:24:13;20.10;52.60
11239;DHT22;5677;48.488;13.436;2023-07-28T03:26:40;20.00;52.50
11239;DHT22;5677;48.488;13.436;2023-07-28T03:29:07;20.10;52.60
11239;DHT22;5677;48.488;13.436;2023-07-28T03:31:33;20.10;52.60
11239;DHT22;5677;48.488;13.436;2023-07-28T03:34:01;20.10;52.60
11239;DHT22;5677;48.488;13.436;2023-07-28T03:36:27;20.10;52.60
11239;DHT22;5677;48.488;13.436;2023-07-28T03:38:54;20.10;52.60
11239;DHT22;5677;48.488;13.436;2023-07-28T03:41:22;20.10;52.60
11239;DHT22;5677;48.488;13.436;2023-07-28T03:43:49;20.00;52.50
11239;DHT22;5677;48.488;13.436;2023-07-28T03:46:16;20.00;52.50
11239;DHT22;5677;48.488;13.436;2023-07-28T03:48:43;20.10;52.60
11239;DHT22;5677;48.488;13.436;2023-07-28T03:51:09;20.00;52.50
11239;DHT22;5677;48.488;13.436;2023-07-28T03:53:36;20.00;52.50
11239;DHT22;5677;48.488;13.436;2023-07-28T03:56:03;20.00;52.50
11239;DHT22;5677;48.488;13.436;2023-07-28T03:58:31;20.00;52.50
11239;DHT22;5677;48.488;13.436;2023-07-28T04:00:58;20.00;52.60
11239;DHT22;5677;48.488;13.436;2023-07-28T04:03:25;20.00;52.50
11239;DHT22;5677;48.488;13.436;2023-07-28T04:05:51;20.00;52.60
11239;DHT22;5677;48.488;13.436;2023-07-28T04:08:18;20.00;52.50
11239;DHT22;5677;48.488;13.436;2023-07-28T04:10:45;20.00;52.50
11239;DHT22;5677;48.488;13.436;2023-07-28T04:13:12;20.00;52.50
11239;DHT22;5677;48.488;13.436;2023-07-28T04:15:40;20.00;52.60
11239;DHT22;5677;48.488;13.436;2023-07-28T04:18:07;20.00;52.60
11239;DHT22;5677;48.488;13.436;2023-07-28T04:20:34;20.00;52.60
11239;DHT22;5677;48.488;13.436;2023-07-28T04:23:00;20.00;52.60
11239;DHT22;5677;48.488;13.436;2023-07-28T04:25:27;20.00;52.60
11239;DHT22;5677;48.488;13.436;2023-07-28T04:27:54;20.00;52.60
11239;DHT22;5677;48.488;13.436;2023-07-28T04:30:21;20.00;52.60
11239;DHT22;5677;48.488;13.436;2023-07-28T04:32:49;20.00;52.60
11239;DHT22;5677;48.488;13.436;2023-07-28T04:35:16;20.00;52.60
11239;DHT22;5677;48.488;13.436;2023-07-28T04:37:43;20.00;52.60
11239;DHT22;5677;48.488;13.436;2023-07-28T04:40:11;20.00;52.60
11239;DHT22;5677;48.488;13.436;2023-07-28T04:42:37;20.00;52.60
11239;DHT22;5677;48.488;13.436;2023-07-28T04:45:05;20.00;52.60
11239;DHT22;5677;48.488;13.436;2023-07-28T04:47:32;20.00;52.60
11239;DHT22;5677;48.488;13.436;2023-07-28T04:50:00;20.00;52.60
11239;DHT22;5677;48.488;13.436;2023-07-28T04:52:27;20.00;52.50
11239;DHT22;5677;48.488;13.436;2023-07-28T04:54:53;20.00;52.60
11239;DHT22;5677;48.488;13.436;2023-07-28T04:57:20;20.00;52.60
11239;DHT22;5677;48.488;13.436;2023-07-28T04:59:47;20.00;52.50
11239;DHT22;5677;48.488;13.436;2023-07-28T05:02:13;20.00;52.50
11239;DHT22;5677;48.488;13.436;2023-07-28T05:04:40;20.00;52.50
11239;DHT22;5677;48.488;13.436;2023-07-28T05:07:08;20.00;52.60
11239;DHT22;5677;48.488;13.436;2023-07-28T05:09:35;20.00;52.50
11239;DHT22;5677;48.488;13.436;2023-07-28T05:12:03;20.00;52.60
11239;DHT22;5677;48.488;13.436;2023-07-28T05:14:30;20.00;52.50
11239;DHT22;5677;48.488;13.436;2023-07-28T05:16:57;20.00;52.60
11239;DHT22;5677;48.488;13.436;2023-07-28T05:19:23;20.00;52.50
11239;DHT22;5677;48.488;13.436;2023-07-28T05:21:50;20.00;52.50
11239;DHT22;5677;48.488;13.436;2023-07-28T05:24:18;20.00;52.50
11239;DHT22;5677;48.488;13.436;2023-07-28T05:26:45;20.00;52.50
11239;DHT22;5677;48.488;13.436;2023-07-28T05:29:11;20.10;52.60
11239;DHT22;5677;48.488;13.436;2023-07-28T05:31:38;20.10;52.60
11239;DHT22;5677;48.488;13.436;2023-07-28T05:34:05;20.10;52.50
11239;DHT22;5677;48.488;13.436;2023-07-28T05:36:32;20.10;52.50
11239;DHT22;5677;48.488;13.436;2023-07-28T05:38:58;20.10;52.50
11239;DHT22;5677;48.488;13.436;2023-07-28T05:41:26;20.10;52.50
11239;DHT22;5677;48.488;13.436;2023-07-28T05:43:53;20.10;52.50
11239;DHT22;5677;48.488;13.436;2023-07-28T05:46:20;20.10;52.50
11239;DHT22;5677;48.488;13.436;2023-07-28T05:48:47;20.10;52.40
11239;DHT22;5677;48.488;13.436;2023-07-28T05:51:13;20.10;52.40
11239;DHT22;5677;48.488;13.436;2023-07-28T05:53:40;20.10;52.40
11239;DHT22;5677;48.488;13.436;2023-07-28T05:56:07;20.10;52.40
11239;DHT22;5677;48.488;13.436;2023-07-28T05:58:35;20.10;52.40
11239;DHT22;5677;48.488;13.436;2023-07-28T06:01:01;20.20;52.30
11239;DHT22;5677;48.488;13.436;2023-07-28T06:03:28;20.10;52.30
11239;DHT22;5677;48.488;13.436;2023-07-28T06:05:56;20.10;52.30
11239;DHT22;5677;48.488;13.436;2023-07-28T06:08:23;20.10;52.30
11239;DHT22;5677;48.488;13.436;2023-07-28T06:10:50;20.10;52.30
11239;DHT22;5677;48.488;13.436;2023-07-28T06:13:16;20.10;52.20
11239;DHT22;5677;48.488;13.436;2023-07-28T06:15:44;20.20;52.20
11239;DHT22;5677;48.488;13.436;2023-07-28T06:18:11;20.20;52.20
11239;DHT22;5677;48.488;13.436;2023-07-28T06:20:41;20.20;52.10
11239;DHT22;5677;48.488;13.436;2023-07-28T06:23:07;20.20;52.10
11239;DHT22;5677;48.488;13.436;2023-07-28T06:25:34;20.20;52.10
11239;DHT22;5677;48.488;13.436;2023-07-28T06:28:01;20.20;52.10
11239;DHT22;5677;48.488;13.436;2023-07-28T06:30:28;20.20;52.00
11239;DHT22;5677;48.488;13.436;2023-07-28T06:32:57;20.30;52.10
11239;DHT22;5677;48.488;13.436;2023-07-28T06:35:24;20.30;52.10
11239;DHT22;5677;48.488;13.436;2023-07-28T06:37:51;20.30;52.10
11239;DHT22;5677;48.488;13.436;2023-07-28T06:40:18;20.30;52.10
11239;DHT22;5677;48.488;13.436;2023-07-28T06:42:44;20.30;52.10
11239;DHT22;5677;48.488;13.436;2023-07-28T06:45:11;20.30;52.10
11239;DHT22;5677;48.488;13.436;2023-07-28T06:47:39;20.30;52.10
11239;DHT22;5677;48.488;13.436;2023-07-28T06:50:08;20.30;52.00
11239;DHT22;5677;48.488;13.436;2023-07-28T06:55:57;20.30;52.00
11239;DHT22;5677;48.488;13.436;2023-07-28T06:58:23;20.40;52.00
11239;DHT22;5677;48.488;13.436;2023-07-28T07:00:50;20.30;51.90
11239;DHT22;5677;48.488;13.436;2023-07-28T07:03:17;20.30;51.90
11239;DHT22;5677;48.488;13.436;2023-07-28T07:05:46;20.30;52.00
11239;DHT22;5677;48.488;13.436;2023-07-28T07:08:12;20.30;52.00
11239;DHT22;5677;48.488;13.436;2023-07-28T07:10:39;20.30;52.00
11239;DHT22;5677;48.488;13.436;2023-07-28T07:13:06;20.40;51.90
11239;DHT22;5677;48.488;13.436;2023-07-28T07:15:34;20.40;51.90
11239;DHT22;5677;48.488;13.436;2023-07-28T07:18:00;20.40;51.80
11239;DHT22;5677;48.488;13.436;2023-07-28T07:20:28;20.40;51.80
11239;DHT22;5677;48.488;13.436;2023-07-28T07:22:56;20.40;51.80
11239;DHT22;5677;48.488;13.436;2023-07-28T07:25:23;20.40;51.80
11239;DHT22;5677;48.488;13.436;2023-07-28T07:27:49;20.40;51.70
11239;DHT22;5677;48.488;13.436;2023-07-28T07:30:17;20.40;51.70
11239;DHT22;5677;48.488;13.436;2023-07-28T07:32:43;20.40;51.60
11239;DHT22;5677;48.488;13.436;2023-07-28T07:35:10;20.40;51.50
11239;DHT22;5677;48.488;13.436;2023-07-28T07:37:37;20.50;51.50
11239;DHT22;5677;48.488;13.436;2023-07-28T07:40:08;20.50;51.50
11239;DHT22;5677;48.488;13.436;2023-07-28T07:42:43;20.50;51.50
11239;DHT22;5677;48.488;13.436;2023-07-28T07:45:10;20.50;51.50
11239;DHT22;5677;48.488;13.436;2023-07-28T07:47:38;20.50;51.50
11239;DHT22;5677;48.488;13.436;2023-07-28T07:50:06;20.40;51.40
11239;DHT22;5677;48.488;13.436;2023-07-28T07:52:34;20.40;51.40
11239;DHT22;5677;48.488;13.436;2023-07-28T07:55:01;20.50;51.50
11239;DHT22;5677;48.488;13.436;2023-07-28T07:57:29;20.50;51.50
11239;DHT22;5677;48.488;13.436;2023-07-28T07:59:57;20.50;51.50
11239;DHT22;5677;48.488;13.436;2023-07-28T08:02:24;20.50;51.50
11239;DHT22;5677;48.488;13.436;2023-07-28T08:04:52;20.40;51.50
11239;DHT22;5677;48.488;13.436;2023-07-28T08:07:19;20.40;51.50
11239;DHT22;5677;48.488;13.436;2023-07-28T08:09:46;20.40;51.50
11239;DHT22;5677;48.488;13.436;2023-07-28T08:12:14;20.40;51.50
11239;DHT22;5677;48.488;13.436;2023-07-28T08:14:42;20.40;51.60
11239;DHT22;5677;48.488;13.436;2023-07-28T08:17:09;20.40;51.60
11239;DHT22;5677;48.488;13.436;2023-07-28T08:19:36;20.40;51.70
11239;DHT22;5677;48.488;13.436;2023-07-28T08:22:03;20.40;51.70
11239;DHT22;5677;48.488;13.436;2023-07-28T08:24:30;20.40;51.60
11239;DHT22;5677;48.488;13.436;2023-07-28T08:26:57;20.40;51.60
11239;DHT22;5677;48.488;13.436;2023-07-28T08:29:24;20.40;51.60
11239;DHT22;5677;48.488;13.436;2023-07-28T08:31:52;20.40;51.60
11239;DHT22;5677;48.488;13.436;2023-07-28T08:34:19;20.40;51.60
11239;DHT22;5677;48.488;13.436;2023-07-28T08:36:46;20.40;51.60
11239;DHT22;5677;48.488;13.436;2023-07-28T08:39:12;20.40;51.60
11239;DHT22;5677;48.488;13.436;2023-07-28T08:41:40;20.40;51.60
11239;DHT22;5677;48.488;13.436;2023-07-28T08:44:07;20.40;51.50
11239;DHT22;5677;48.488;13.436;2023-07-28T08:46:34;20.50;51.60
11239;DHT22;5677;48.488;13.436;2023-07-28T08:49:02;20.50;51.60
11239;DHT22;5677;48.488;13.436;2023-07-28T08:51:29;20.50;51.60
11239;DHT22;5677;48.488;13.436;2023-07-28T08:53:55;20.50;51.50
11239;DHT22;5677;48.488;13.436;2023-07-28T08:56:23;20.50;51.50
11239;DHT22;5677;48.488;13.436;2023-07-28T08:58:57;20.50;51.50
11239;DHT22;5677;48.488;13.436;2023-07-28T09:01:24;20.60;51.50
11239;DHT22;5677;48.488;13.436;2023-07-28T09:03:50;20.60;51.50
11239;DHT22;5677;48.488;13.436;2023-07-28T09:06:19;20.60;51.40
11239;DHT22;5677;48.488;13.436;2023-07-28T09:08:45;20.60;51.40
11239;DHT22;5677;48.488;13.436;2023-07-28T09:11:13;20.60;51.40
11239;DHT22;5677;48.488;13.436;2023-07-28T09:13:41;20.60;51.40
11239;DHT22;5677;48.488;13.436;2023-07-28T09:16:17;20.60;51.40
11239;DHT22;5677;48.488;13.436;2023-07-28T09:18:44;20.60;51.40
11239;DHT22;5677;48.488;13.436;2023-07-28T09:21:16;20.60;51.30
11239;DHT22;5677;48.488;13.436;2023-07-28T09:23:45;20.60;51.40
11239;DHT22;5677;48.488;13.436;2023-07-28T09:26:12;20.60;51.30
11239;DHT22;5677;48.488;13.436;2023-07-28T09:28:39;20.60;51.30
11239;DHT22;5677;48.488;13.436;2023-07-28T09:31:07;20.70;51.40
11239;DHT22;5677;48.488;13.436;2023-07-28T09:33:36;20.60;51.30
11239;DHT22;5677;48.488;13.436;2023-07-28T09:36:11;20.60;52.00
11239;DHT22;5677;48.488;13.436;2023-07-28T09:38:39;20.60;51.30
11239;DHT22;5677;48.488;13.436;2023-07-28T09:41:09;20.60;51.30
11239;DHT22;5677;48.488;13.436;2023-07-28T09:43:37;20.60;52.10
11239;DHT22;5677;48.488;13.436;2023-07-28T09:46:06;20.60;51.40
11239;DHT22;5677;48.488;13.436;2023-07-28T09:48:34;20.60;51.40
11239;DHT22;5677;48.488;13.436;2023-07-28T09:51:05;20.60;51.40
11239;DHT22;5677;48.488;13.436;2023-07-28T09:53:37;20.60;51.40
11239;DHT22;5677;48.488;13.436;2023-07-28T09:56:08;20.60;51.40
11239;DHT22;5677;48.488;13.436;2023-07-28T09:58:38;20.60;51.50
11239;DHT22;5677;48.488;13.436;2023-07-28T10:01:08;20.60;51.50
11239;DHT22;5677;48.488;13.436;2023-07-28T10:03:35;20.60;51.50
11239;DHT22;5677;48.488;13.436;2023-07-28T10:06:04;20.60;51.50
11239;DHT22;5677;48.488;13.436;2023-07-28T10:08:31;20.60;51.50
11239;DHT22;5677;48.488;13.436;2023-07-28T10:10:58;20.60;51.60
11239;DHT22;5677;48.488;13.436;2023-07-28T10:13:27;20.60;51.60
11239;DHT22;5677;48.488;13.436;2023-07-28T10:16:01;20.60;51.60
11239;DHT22;5677;48.488;13.436;2023-07-28T10:18:28;20.50;51.60
11239;DHT22;5677;48.488;13.436;2023-07-28T10:21:04;20.60;51.60
11239;DHT22;5677;48.488;13.436;2023-07-28T10:23:34;20.60;51.70
11239;DHT22;5677;48.488;13.436;2023-07-28T10:26:01;20.50;51.70
11239;DHT22;5677;48.488;13.436;2023-07-28T10:28:34;20.60;51.70
11239;DHT22;5677;48.488;13.436;2023-07-28T10:31:05;20.50;51.70
11239;DHT22;5677;48.488;13.436;2023-07-28T10:33:33;20.50;51.70
11239;DHT22;5677;48.488;13.436;2023-07-28T10:36:13;20.50;51.70
11239;DHT22;5677;48.488;13.436;2023-07-28T10:38:40;20.50;51.70
11239;DHT22;5677;48.488;13.436;2023-07-28T10:41:13;20.60;51.70
11239;DHT22;5677;48.488;13.436;2023-07-28T10:43:43;20.60;51.70
11239;DHT22;5677;48.488;13.436;2023-07-28T10:46:11;20.60;51.70
11239;DHT22;5677;48.488;13.436;2023-07-28T10:48:42;20.60;51.60
11239;DHT22;5677;48.488;13.436;2023-07-28T10:51:09;20.60;51.60
11239;DHT22;5677;48.488;13.436;2023-07-28T10:53:37;20.60;51.60
11239;DHT22;5677;48.488;13.436;2023-07-28T10:56:04;20.60;51.60
11239;DHT22;5677;48.488;13.436;2023-07-28T10:58:33;20.60;51.50
11239;DHT22;5677;48.488;13.436;2023-07-28T11:01:02;20.60;51.50
11239;DHT22;5677;48.488;13.436;2023-07-28T11:03:29;20.60;51.50
11239;DHT22;5677;48.488;13.436;2023-07-28T11:05:56;20.60;51.50
11239;DHT22;5677;48.488;13.436;2023-07-28T11:08:23;20.60;51.50
11239;DHT22;5677;48.488;13.436;2023-07-28T11:10:50;20.60;51.50
11239;DHT22;5677;48.488;13.436;2023-07-28T11:13:17;20.60;51.60
11239;DHT22;5677;48.488;13.436;2023-07-28T11:15:43;20.60;51.60
11239;DHT22;5677;48.488;13.436;2023-07-28T11:18:15;20.60;51.60
11239;DHT22;5677;48.488;13.436;2023-07-28T11:20:41;20.60;51.60
11239;DHT22;5677;48.488;13.436;2023-07-28T11:23:08;20.60;51.60
11239;DHT22;5677;48.488;13.436;2023-07-28T11:25:35;20.60;51.70
11239;DHT22;5677;48.488;13.436;2023-07-28T11:28:02;20.60;51.70
11239;DHT22;5677;48.488;13.436;2023-07-28T11:30:31;20.60;51.70
11239;DHT22;5677;48.488;13.436;2023-07-28T11:32:59;20.60;51.70
11239;DHT22;5677;48.488;13.436;2023-07-28T11:35:27;20.60;51.70
11239;DHT22;5677;48.488;13.436;2023-07-28T11:37:55;20.60;51.70
11239;DHT22;5677;48.488;13.436;2023-07-28T11:40:23;20.60;51.60
11239;DHT22;5677;48.488;13.436;2023-07-28T11:42:53;20.60;51.70
11239;DHT22;5677;48.488;13.436;2023-07-28T11:45:20;20.60;51.70
11239;DHT22;5677;48.488;13.436;2023-07-28T11:47:58;20.60;51.70
11239;DHT22;5677;48.488;13.436;2023-07-28T11:50:28;20.60;51.60
11239;DHT22;5677;48.488;13.436;2023-07-28T11:52:57;20.60;51.60
11239;DHT22;5677;48.488;13.436;2023-07-28T11:55:24;20.60;51.60
11239;DHT22;5677;48.488;13.436;2023-07-28T11:57:52;20.60;51.70
11239;DHT22;5677;48.488;13.436;2023-07-28T12:00:24;20.60;51.70
11239;DHT22;5677;48.488;13.436;2023-07-28T12:03:04;20.60;51.70
11239;DHT22;5677;48.488;13.436;2023-07-28T12:05:33;20.60;51.70
11239;DHT22;5677;48.488;13.436;2023-07-28T12:08:00;20.60;51.70
11239;DHT22;5677;48.488;13.436;2023-07-28T12:10:28;20.60;51.70
11239;DHT22;5677;48.488;13.436;2023-07-28T12:12:57;20.60;51.70
11239;DHT22;5677;48.488;13.436;2023-07-28T12:15:25;20.60;51.70
11239;DHT22;5677;48.488;13.436;2023-07-28T12:18:14;20.60;51.70
11239;DHT22;5677;48.488;13.436;2023-07-28T12:20:44;20.60;52.40
11239;DHT22;5677;48.488;13.436;2023-07-28T12:23:14;20.60;51.70
11239;DHT22;5677;48.488;13.436;2023-07-28T12:25:41;20.60;51.80
11239;DHT22;5677;48.488;13.436;2023-07-28T12:28:08;20.60;51.70
11239;DHT22;5677;48.488;13.436;2023-07-28T12:30:35;20.60;51.70
11239;DHT22;5677;48.488;13.436;2023-07-28T12:33:02;20.60;51.70
11239;DHT22;5677;48.488;13.436;2023-07-28T12:35:30;20.60;51.80
11239;DHT22;5677;48.488;13.436;2023-07-28T12:38:01;20.60;51.80
11239;DHT22;5677;48.488;13.436;2023-07-28T12:40:30;20.60;51.80
11239;DHT22;5677;48.488;13.436;2023-07-28T12:42:58;20.60;51.80
11239;DHT22;5677;48.488;13.436;2023-07-28T12:45:25;20.60;51.80
11239;DHT22;5677;48.488;13.436;2023-07-28T12:47:52;20.60;51.80
11239;DHT22;5677;48.488;13.436;2023-07-28T12:50:19;20.60;51.80
11239;DHT22;5677;48.488;13.436;2023-07-28T12:52:47;20.60;51.80
11239;DHT22;5677;48.488;13.436;2023-07-28T12:55:15;20.60;51.80
11239;DHT22;5677;48.488;13.436;2023-07-28T12:57:43;20.60;51.80
11239;DHT22;5677;48.488;13.436;2023-07-28T13:00:11;20.60;51.80
11239;DHT22;5677;48.488;13.436;2023-07-28T13:02:39;20.60;51.80
11239;DHT22;5677;48.488;13.436;2023-07-28T13:05:06;20.60;51.80
11239;DHT22;5677;48.488;13.436;2023-07-28T13:07:34;20.60;51.80
11239;DHT22;5677;48.488;13.436;2023-07-28T13:10:01;20.60;51.80
11239;DHT22;5677;48.488;13.436;2023-07-28T13:12:30;20.60;51.80
11239;DHT22;5677;48.488;13.436;2023-07-28T13:14:56;20.60;51.80
11239;DHT22;5677;48.488;13.436;2023-07-28T13:17:23;20.60;51.80
11239;DHT22;5677;48.488;13.436;2023-07-28T13:19:50;20.50;51.80
11239;DHT22;5677;48.488;13.436;2023-07-28T13:22:17;20.60;51.80
11239;DHT22;5677;48.488;13.436;2023-07-28T13:24:44;20.60;51.90
11239;DHT22;5677;48.488;13.436;2023-07-28T13:27:10;20.60;51.80
11239;DHT22;5677;48.488;13.436;2023-07-28T13:29:39;20.50;51.80
11239;DHT22;5677;48.488;13.436;2023-07-28T13:32:15;20.60;51.80
11239;DHT22;5677;48.488;13.436;2023-07-28T13:34:42;20.50;51.90
11239;DHT22;5677;48.488;13.436;2023-07-28T13:37:09;20.60;51.80
11239;DHT22;5677;48.488;13.436;2023-07-28T13:39:36;20.60;51.90
11239;DHT22;5677;48.488;13.436;2023-07-28T13:42:03;20.50;51.90
11239;DHT22;5677;48.488;13.436;2023-07-28T13:44:29;20.60;51.90
11239;DHT22;5677;48.488;13.436;2023-07-28T13:46:58;20.60;51.90
11239;DHT22;5677;48.488;13.436;2023-07-28T13:49:24;20.60;51.90
11239;DHT22;5677;48.488;13.436;2023-07-28T13:51:51;20.60;51.90
11239;DHT22;5677;48.488;13.436;2023-07-28T13:54:18;20.60;51.90
11239;DHT22;5677;48.488;13.436;2023-07-28T13:56:45;20.60;51.90
11239;DHT22;5677;48.488;13.436;2023-07-28T13:59:11;20.60;51.90
11239;DHT22;5677;48.488;13.436;2023-07-28T14:01:38;20.50;51.90
11239;DHT22;5677;48.488;13.436;2023-07-28T14:04:06;20.60;51.90
11239;DHT22;5677;48.488;13.436;2023-07-28T14:06:33;20.60;51.90
11239;DHT22;5677;48.488;13.436;2023-07-28T14:09:00;20.60;51.90
11239;DHT22;5677;48.488;13.436;2023-07-28T14:11:27;20.50;51.90
11239;DHT22;5677;48.488;13.436;2023-07-28T14:13:53;20.50;51.90
11239;DHT22;5677;48.488;13.436;2023-07-28T14:16:20;20.50;51.90
11239;DHT22;5677;48.488;13.436;2023-07-28T14:18:47;20.50;51.90
11239;DHT22;5677;48.488;13.436;2023-07-28T14:21:17;20.60;51.90
11239;DHT22;5677;48.488;13.436;2023-07-28T14:23:43;20.60;51.90
11239;DHT22;5677;48.488;13.436;2023-07-28T14:26:10;20.50;51.90
11239;DHT22;5677;48.488;13.436;2023-07-28T14:28:37;20.60;51.90
11239;DHT22;5677;48.488;13.436;2023-07-28T14:31:04;20.60;51.90
11239;DHT22;5677;48.488;13.436;2023-07-28T14:33:31;20.50;51.90
11239;DHT22;5677;48.488;13.436;2023-07-28T14:35:59;20.60;51.90
11239;DHT22;5677;48.488;13.436;2023-07-28T14:38:27;20.50;51.90
11239;DHT22;5677;48.488;13.436;2023-07-28T14:40:54;20.60;52.30
11239;DHT22;5677;48.488;13.436;2023-07-28T14:43:20;20.60;51.90
11239;DHT22;5677;48.488;13.436;2023-07-28T14:45:49;20.60;51.90
11239;DHT22;5677;48.488;13.436;2023-07-28T14:48:16;20.60;51.90
11239;DHT22;5677;48.488;13.436;2023-07-28T14:50:43;20.50;51.90
11239;DHT22;5677;48.488;13.436;2023-07-28T14:53:30;20.60;51.90
11239;DHT22;5677;48.488;13.436;2023-07-28T14:55:57;20.60;51.90
11239;DHT22;5677;48.488;13.436;2023-07-28T14:58:25;20.60;51.90
11239;DHT22;5677;48.488;13.436;2023-07-28T15:00:52;20.50;52.00
11239;DHT22;5677;48.488;13.436;2023-07-28T15:03:19;20.60;57.30
11239;DHT22;5677;48.488;13.436;2023-07-28T15:05:46;20.60;59.00
11239;DHT22;5677;48.488;13.436;2023-07-28T15:08:13;20.70;61.70
11239;DHT22;5677;48.488;13.436;2023-07-28T15:10:41;20.70;65.30
11239;DHT22;5677;48.488;13.436;2023-07-28T15:13:08;20.80;65.00
11239;DHT22;5677;48.488;13.436;2023-07-28T15:15:35;20.80;64.10
11239;DHT22;5677;48.488;13.436;2023-07-28T15:18:02;20.80;63.00
11239;DHT22;5677;48.488;13.436;2023-07-28T15:20:28;20.80;63.10
11239;DHT22;5677;48.488;13.436;2023-07-28T15:22:55;20.80;62.80
11239;DHT22;5677;48.488;13.436;2023-07-28T15:25:22;20.80;62.00
11239;DHT22;5677;48.488;13.436;2023-07-28T15:27:50;20.80;62.00
11239;DHT22;5677;48.488;13.436;2023-07-28T15:30:17;20.80;61.60
11239;DHT22;5677;48.488;13.436;2023-07-28T15:32:43;20.80;61.50
11239;DHT22;5677;48.488;13.436;2023-07-28T15:35:10;20.80;61.30
11239;DHT22;5677;48.488;13.436;2023-07-28T15:37:37;20.80;61.80
11239;DHT22;5677;48.488;13.436;2023-07-28T15:40:04;20.80;62.00
11239;DHT22;5677;48.488;13.436;2023-07-28T15:42:31;20.80;62.20